Time;durP1;ratioP1;P1;durP2;ratioP2;P2;SDS_P1;SDS_P2;PMS_P1;PMS_P2;Temp;Humidity;BMP_temperature;BMP_pressure;BME280_temperature;BME280_humidity;BME280_pressure;Samples;Min_cycle;Max_cycle;Signal;HPM_P1;HPM_P2
2021/11/18 00:00:35;;;;;;;;;;;;;;;-144.99;100.00;52586.69;5025026;28;20024;-63
2021/11/18 00:03:03;;;;;;;;;;;;;;;-144.99;100.00;52576.50;5026113;28;20545;-64
2021/11/18 00:05:31;;;;;;;;;;;;;;;-144.99;100.00;52582.63;5025875;28;19981;-63
2021/11/18 00:07:57;;;;;;;;;;;;;;;-144.99;100.00;52582.63;5026006;28;19998;-64
2021/11/18 00:10:25;;;;;;;;;;;;;;;-144.99;100.00;52588.75;5029574;28;19984;-64
2021/11/18 00:12:52;;;;;;;;;;;;;;;-144.99;100.00;52603.00;5046551;22;20393;-62
2021/11/18 00:15:19;;;;;;;;;;;;;;;-144.99;100.00;52584.66;5055487;28;20071;-62
2021/11/18 00:17:45;;;;;;;;;;;;;;;-144.99;100.00;52566.31;5048489;28;19984;-63
2021/11/18 00:20:13;;;;;;;;;;;;;;;-144.99;100.00;52594.84;5046895;28;19974;-61
2021/11/18 00:22:40;;;;;;;;;;;;;;;-144.99;100.00;52611.16;5045213;28;20051;-63
2021/11/18 00:25:07;;;;;;;;;;;;;;;-144.99;100.00;52586.69;5028790;28;20438;-62
2021/11/18 00:27:35;;;;;;;;;;;;;;;-144.99;100.00;52590.78;5028489;28;20465;-59
2021/11/18 00:30:01;;;;;;;;;;;;;;;-144.99;100.00;52600.97;5024815;28;19974;-60
2021/11/18 00:32:28;;;;;;;;;;;;;;;-144.99;100.00;52578.53;5029068;28;19985;-60
2021/11/18 00:34:54;;;;;;;;;;;;;;;-144.99;100.00;52627.47;5028108;28;20004;-60
2021/11/18 00:37:20;;;;;;;;;;;;;;;-144.99;100.00;52543.91;5024941;28;20061;-60
2021/11/18 00:39:47;;;;;;;;;;;;;;;-144.99;100.00;52584.66;5029293;28;20521;-60
2021/11/18 00:42:13;;;;;;;;;;;;;;;-144.99;100.00;52594.84;5030890;28;19974;-59
2021/11/18 00:44:41;;;;;;;;;;;;;;;-144.99;100.00;52600.97;5029721;28;19989;-59
2021/11/18 00:47:07;;;;;;;;;;;;;;;-144.99;100.00;52590.78;5029907;28;19980;-60
2021/11/18 00:49:34;;;;;;;;;;;;;;;-144.99;100.00;52594.84;5028976;28;20476;-59
2021/11/18 00:52:00;;;;;;;;;;;;;;;-144.99;100.00;52586.69;5029393;28;20379;-58
2021/11/18 00:54:26;;;;;;;;;;;;;;;-144.99;100.00;52537.78;5029048;28;19993;-58
2021/11/18 00:56:53;;;;;;;;;;;;;;;-144.99;100.00;52619.31;5028731;28;19984;-59
2021/11/18 00:59:19;;;;;;;;;;;;;;;-144.99;100.00;52578.53;5027556;28;20004;-59
2021/11/18 01:01:48;;;;;;;;;;;;;;;-144.99;100.00;52562.25;5032244;28;20368;-59
2021/11/18 01:04:16;;;;;;;;;;;;;;;-144.99;100.00;52611.16;5035726;28;20418;-58
2021/11/18 01:06:42;;;;;;;;;;;;;;;-144.99;100.00;52619.31;5029335;28;19973;-58
2021/11/18 01:09:09;;;;;;;;;;;;;;;-144.99;100.00;52615.25;5033756;28;20032;-59
2021/11/18 01:11:36;;;;;;;;;;;;;;;-144.99;100.00;52603.00;5036360;28;19977;-58
2021/11/18 01:14:05;;;;;;;;;;;;;;;-144.99;100.00;52576.50;5030931;28;19997;-58
2021/11/18 01:16:33;;;;;;;;;;;;;;;-144.99;100.00;52594.84;5037122;28;19977;-57
2021/11/18 01:19:00;;;;;;;;;;;;;;;-144.99;100.00;52562.25;5036217;28;19989;-60
2021/11/18 01:21:27;;;;;;;;;;;;;;;-144.99;100.00;52588.75;5037342;28;19977;-60
2021/11/18 01:23:54;;;;;;;;;;;;;;;-144.99;100.00;52596.88;5036971;28;19993;-61
2021/11/18 01:26:21;;;;;;;;;;;;;;;-144.99;100.00;52576.50;5035591;28;19973;-60
2021/11/18 01:28:48;;;;;;;;;;;;;;;-144.99;100.00;52598.94;5033672;28;19990;-60
2021/11/18 01:31:15;;;;;;;;;;;;;;;-144.99;100.00;52590.78;5034006;28;19981;-61
2021/11/18 01:33:42;;;;;;;;;;;;;;;-144.99;100.00;52598.94;5037228;28;20001;-60
2021/11/18 01:36:10;;;;;;;;;;;;;;;-144.99;100.00;52582.63;5039707;28;19974;-61
2021/11/18 01:38:37;;;;;;;;;;;;;;;-144.99;100.00;52574.47;5035756;28;20427;-62
2021/11/18 01:41:05;;;;;;;;;;;;;;;-144.99;100.00;52603.00;5034883;28;20013;-60
2021/11/18 01:43:33;;;;;;;;;;;;;;;-144.99;100.00;52603.00;5034940;28;20001;-60
2021/11/18 01:46:00;;;;;;;;;;;;;;;-144.99;100.00;52590.78;5035201;28;19978;-59
2021/11/18 01:48:27;;;;;;;;;;;;;;;-144.99;100.00;52613.19;5034798;28;20026;-60
2021/11/18 01:50:54;;;;;;;;;;;;;;;-144.99;100.00;52603.00;5033508;28;20457;-61
2021/11/18 01:53:23;;;;;;;;;;;;;;;-144.99;100.00;52578.53;5034940;28;19990;-61
2021/11/18 01:55:50;;;;;;;;;;;;;;;-144.99;100.00;52586.69;5035830;28;19993;-61
2021/11/18 01:58:18;;;;;;;;;;;;;;;-144.99;100.00;52570.38;5033534;28;19974;-63
2021/11/18 02:00:46;;;;;;;;;;;;;;;-144.99;100.00;52613.19;5033508;28;19977;-63
2021/11/18 02:03:12;;;;;;;;;;;;;;;-144.99;100.00;52578.53;5034823;28;20005;-63
2021/11/18 02:05:45;;;;;;;;;;;;;;;-144.99;100.00;52611.16;5031710;28;19974;-64
2021/11/18 02:08:11;;;;;;;;;;;;;;;-144.99;100.00;52586.69;5027410;28;19989;-63
2021/11/18 02:10:40;;;;;;;;;;;;;;;-144.99;100.00;52627.47;5035198;28;19977;-63
2021/11/18 02:13:07;;;;;;;;;;;;;;;-144.99;100.00;52562.25;5031802;28;19993;-63
2021/11/18 02:15:35;;;;;;;;;;;;;;;-144.99;100.00;52582.63;5030961;28;19984;-62
2021/11/18 02:18:02;;;;;;;;;;;;;;;-144.99;100.00;52594.84;5030578;28;19974;-62
2021/11/18 02:20:31;;;;;;;;;;;;;;;-144.99;100.00;52586.69;5032337;28;19997;-62
2021/11/18 02:22:58;;;;;;;;;;;;;;;-144.99;100.00;52574.47;5029037;28;19993;-62
2021/11/18 02:25:25;;;;;;;;;;;;;;;-144.99;100.00;52582.63;5030236;28;20341;-62
2021/11/18 02:27:52;;;;;;;;;;;;;;;-144.99;100.00;52568.34;5030724;28;19984;-63
2021/11/18 02:30:19;;;;;;;;;;;;;;;-144.99;100.00;52594.84;5032329;28;20024;-62
2021/11/18 02:32:45;;;;;;;;;;;;;;;-144.99;100.00;52615.25;5031204;28;19993;-63
2021/11/18 02:35:14;;;;;;;;;;;;;;;-144.99;100.00;52603.00;5030666;28;19974;-65
2021/11/18 02:37:42;;;;;;;;;;;;;;;-144.99;100.00;52554.09;5029885;28;19982;-65
2021/11/18 02:40:10;;;;;;;;;;;;;;;-144.99;100.00;52582.63;5027881;28;20341;-66
2021/11/18 02:42:37;;;;;;;;;;;;;;;-144.99;100.00;52590.78;5028392;28;19998;-63
2021/11/18 02:45:05;;;;;;;;;;;;;;;-144.99;100.00;52603.00;5027728;28;19974;-64
2021/11/18 02:47:31;;;;;;;;;;;;;;;-144.99;100.00;52590.78;5031682;28;19978;-64
2021/11/18 02:49:58;;;;;;;;;;;;;;;-144.99;100.00;52603.00;5028206;28;20504;-64
2021/11/18 02:52:28;;;;;;;;;;;;;;;-144.99;100.00;52603.00;5027082;28;20401;-64
2021/11/18 02:54:56;;;;;;;;;;;;;;;-144.99;100.00;52590.78;5029942;28;19977;-64
2021/11/18 02:57:23;;;;;;;;;;;;;;;-144.99;100.00;52609.13;5031767;28;19981;-64
2021/11/18 02:59:49;;;;;;;;;;;;;;;-144.99;100.00;52592.81;5030855;28;19984;-64
2021/11/18 03:02:16;;;;;;;;;;;;;;;-144.99;100.00;52578.53;5031358;28;19963;-64
2021/11/18 03:04:42;;;;;;;;;;;;;;;-144.99;100.00;52594.84;5029665;28;19974;-64
2021/11/18 03:07:09;;;;;;;;;;;;;;;-144.99;100.00;52592.81;5025792;28;19987;-64
2021/11/18 03:09:36;;;;;;;;;;;;;;;-144.99;100.00;52598.94;5030553;28;20084;-64
2021/11/18 03:12:04;;;;;;;;;;;;;;;-144.99;100.00;52607.09;5029980;28;19973;-61
2021/11/18 03:14:31;;;;;;;;;;;;;;;-144.99;100.00;52578.53;5028543;28;20174;-61
2021/11/18 03:16:58;;;;;;;;;;;;;;;-144.99;100.00;52586.69;5029574;28;19978;-61
2021/11/18 03:19:25;;;;;;;;;;;;;;;-144.99;100.00;52578.53;5030967;28;20327;-61
2021/11/18 03:21:52;;;;;;;;;;;;;;;-144.99;100.00;52643.78;5032437;28;20285;-60
2021/11/18 03:24:18;;;;;;;;;;;;;;;-144.99;100.00;52598.94;5033045;28;20465;-61
2021/11/18 03:26:45;;;;;;;;;;;;;;;-144.99;100.00;52590.78;5029823;28;19977;-60
2021/11/18 03:29:12;;;;;;;;;;;;;;;-144.99;100.00;52570.38;5029505;28;20004;-61
2021/11/18 03:31:39;;;;;;;;;;;;;;;-144.99;100.00;52566.31;5031163;28;20415;-64
2021/11/18 03:34:07;;;;;;;;;;;;;;;-144.99;100.00;52596.88;5030402;28;20000;-64
2021/11/18 03:36:33;;;;;;;;;;;;;;;-144.99;100.00;52586.69;5028605;28;19974;-65
2021/11/18 03:39:00;;;;;;;;;;;;;;;-144.99;100.00;52582.63;5028857;28;20461;-65
2021/11/18 03:41:28;;;;;;;;;;;;;;;-144.99;100.00;52574.47;5029467;28;20356;-65
2021/11/18 03:43:56;;;;;;;;;;;;;;;-144.99;100.00;52568.34;5030055;28;19997;-63
2021/11/18 03:46:25;;;;;;;;;;;;;;;-144.99;100.00;52586.69;5027668;28;20470;-64
2021/11/18 03:48:51;;;;;;;;;;;;;;;-144.99;100.00;52566.31;5028900;28;19978;-64
2021/11/18 03:51:18;;;;;;;;;;;;;;;-144.99;100.00;52570.38;5030113;28;19974;-63
2021/11/18 03:53:45;;;;;;;;;;;;;;;-144.99;100.00;52576.50;5029602;28;19994;-64
2021/11/18 03:56:13;;;;;;;;;;;;;;;-144.99;100.00;52598.94;5030910;28;19977;-63
2021/11/18 03:58:40;;;;;;;;;;;;;;;-144.99;100.00;52582.63;5027808;28;19978;-63
2021/11/18 04:01:06;;;;;;;;;;;;;;;-144.99;100.00;52550.00;5030546;28;19977;-64
2021/11/18 04:03:34;;;;;;;;;;;;;;;-144.99;100.00;52570.38;5028183;28;19997;-63
2021/11/18 04:06:01;;;;;;;;;;;;;;;-144.99;100.00;52550.00;5028356;28;19978;-63
2021/11/18 04:08:28;;;;;;;;;;;;;;;-144.99;100.00;52578.53;5028778;28;19944;-63
2021/11/18 04:10:54;;;;;;;;;;;;;;;-144.99;100.00;52541.84;5029553;28;19993;-63
2021/11/18 04:13:21;;;;;;;;;;;;;;;-144.99;100.00;52586.69;5027335;28;19997;-62
2021/11/18 04:15:49;;;;;;;;;;;;;;;-144.99;100.00;52572.44;5030559;28;20359;-61
2021/11/18 04:18:16;;;;;;;;;;;;;;;-144.99;100.00;52635.63;5023877;28;19973;-59
2021/11/18 04:20:44;;;;;;;;;;;;;;;-144.99;100.00;52584.66;5027307;28;20397;-60
2021/11/18 04:23:12;;;;;;;;;;;;;;;-144.99;100.00;52592.81;5029140;28;20558;-58
2021/11/18 04:25:39;;;;;;;;;;;;;;;-144.99;100.00;52564.28;5028549;28;19977;-59
2021/11/18 04:28:06;;;;;;;;;;;;;;;-144.99;100.00;52525.56;5028905;28;19978;-58
2021/11/18 04:30:34;;;;;;;;;;;;;;;-144.99;100.00;52611.16;5028116;28;20110;-58
2021/11/18 04:33:00;;;;;;;;;;;;;;;-144.99;100.00;52562.25;5029256;28;19989;-60
2021/11/18 04:35:26;;;;;;;;;;;;;;;-144.99;100.00;52582.63;5029051;28;19977;-59
2021/11/18 04:37:54;;;;;;;;;;;;;;;-144.99;100.00;52586.69;5027104;28;19984;-58
2021/11/18 04:40:20;;;;;;;;;;;;;;;-144.99;100.00;52582.63;5026917;28;19977;-58
2021/11/18 04:42:47;;;;;;;;;;;;;;;-144.99;100.00;52566.31;5027319;28;19998;-59
2021/11/18 04:45:15;;;;;;;;;;;;;;;-144.99;100.00;52603.00;5028715;28;19974;-60
2021/11/18 04:47:41;;;;;;;;;;;;;;;-144.99;100.00;52598.94;5029731;28;19977;-59
2021/11/18 04:50:08;;;;;;;;;;;;;;;-144.99;100.00;52598.94;5028257;28;20477;-60
2021/11/18 04:52:35;;;;;;;;;;;;;;;-144.99;100.00;52578.53;5029880;28;19968;-57
2021/11/18 04:55:03;;;;;;;;;;;;;;;-144.99;100.00;52584.66;5029552;28;19974;-59
2021/11/18 04:57:30;;;;;;;;;;;;;;;-144.99;100.00;52570.38;5030962;28;19978;-62
2021/11/18 04:59:57;;;;;;;;;;;;;;;-144.99;100.00;52552.03;5029267;28;19981;-63
2021/11/18 05:02:23;;;;;;;;;;;;;;;-144.99;100.00;52598.94;5028085;28;20446;-61
2021/11/18 05:04:50;;;;;;;;;;;;;;;-144.99;100.00;52562.25;5028333;28;19977;-62
2021/11/18 05:07:17;;;;;;;;;;;;;;;-144.99;100.00;52592.81;5024501;28;19973;-61
2021/11/18 05:09:44;;;;;;;;;;;;;;;-144.99;100.00;52594.84;5027588;28;19993;-61
2021/11/18 05:12:12;;;;;;;;;;;;;;;-144.99;100.00;52558.16;5028166;28;19974;-61
2021/11/18 05:14:38;;;;;;;;;;;;;;;-144.99;100.00;52570.38;5023163;28;19988;-61
2021/11/18 05:17:05;;;;;;;;;;;;;;;-144.99;100.00;52590.78;5030326;28;19974;-65
2021/11/18 05:19:32;;;;;;;;;;;;;;;-144.99;100.00;52603.00;5030137;28;19998;-61
2021/11/18 05:21:58;;;;;;;;;;;;;;;-144.99;100.00;52554.09;5029323;28;19974;-64
2021/11/18 05:24:25;;;;;;;;;;;;;;;-144.99;100.00;52558.16;5028540;28;20016;-64
2021/11/18 05:26:51;;;;;;;;;;;;;;;-144.99;100.00;52552.03;5029971;28;20468;-63
2021/11/18 05:29:19;;;;;;;;;;;;;;;-144.99;100.00;52578.53;5028722;28;19973;-64
2021/11/18 05:31:45;;;;;;;;;;;;;;;-144.99;100.00;52607.09;5029854;28;19982;-63
2021/11/18 05:34:11;;;;;;;;;;;;;;;-144.99;100.00;52550.00;5027239;28;19993;-63
2021/11/18 05:36:38;;;;;;;;;;;;;;;-144.99;100.00;52550.00;5031358;28;19984;-63
2021/11/18 05:39:05;;;;;;;;;;;;;;;-144.99;100.00;52582.63;5027338;28;20499;-64
2021/11/18 05:41:32;;;;;;;;;;;;;;;-144.99;100.00;52580.59;5029492;28;20119;-64
2021/11/18 05:44:02;;;;;;;;;;;;;;;-144.99;100.00;52543.91;5026719;28;20000;-64
2021/11/18 05:46:30;;;;;;;;;;;;;;;-144.99;100.00;52562.25;5029034;28;20405;-64
2021/11/18 05:48:57;;;;;;;;;;;;;;;-144.99;100.00;52586.69;5027661;28;19981;-64
2021/11/18 05:51:23;;;;;;;;;;;;;;;-144.99;100.00;52562.25;5032580;28;20004;-65
2021/11/18 05:53:50;;;;;;;;;;;;;;;-144.99;100.00;52623.38;5033224;28;20017;-66
2021/11/18 05:56:18;;;;;;;;;;;;;;;-144.99;100.00;52545.94;5031491;28;19981;-65
2021/11/18 05:58:46;;;;;;;;;;;;;;;-144.99;100.00;52607.09;5032965;28;20414;-67
2021/11/18 06:01:13;;;;;;;;;;;;;;;-144.99;100.00;52562.25;5033600;28;20009;-67
2021/11/18 06:03:41;;;;;;;;;;;;;;;-144.99;100.00;52529.63;5029535;28;19993;-67
2021/11/18 06:06:08;;;;;;;;;;;;;;;-144.99;100.00;52580.59;5030963;28;19978;-66
2021/11/18 06:08:34;;;;;;;;;;;;;;;-144.99;100.00;52564.28;5026803;28;20055;-66
2021/11/18 06:11:01;;;;;;;;;;;;;;;-144.99;100.00;52562.25;5032903;28;19989;-66
2021/11/18 06:13:28;;;;;;;;;;;;;;;-144.99;100.00;52574.47;5031198;28;20471;-69
2021/11/18 06:15:54;;;;;;;;;;;;;;;-144.99;100.00;52570.38;4335699;28;10000728;-67
2021/11/18 06:18:22;;;;;;;;;;;;;;;-144.99;100.00;52598.94;5031115;28;20076;-68
2021/11/18 06:20:49;;;;;;;;;;;;;;;-144.99;100.00;52598.94;5029545;28;19978;-67
2021/11/18 06:23:16;;;;;;;;;;;;;;;-144.99;100.00;52545.94;5026279;28;20048;-69
2021/11/18 06:25:42;;;;;;;;;;;;;;;-144.99;100.00;52562.25;5030122;28;20478;-68
2021/11/18 06:28:10;;;;;;;;;;;;;;;-144.99;100.00;52582.63;5025433;28;19985;-68
2021/11/18 06:30:38;;;;;;;;;;;;;;;-144.99;100.00;52562.25;5031551;28;20066;-68
2021/11/18 06:33:04;;;;;;;;;;;;;;;-144.99;100.00;52545.94;5027030;28;19990;-69
2021/11/18 06:35:31;;;;;;;;;;;;;;;-144.99;100.00;52586.69;5028306;28;19973;-69
2021/11/18 06:37:59;;;;;;;;;;;;;;;-144.99;100.00;52586.69;5027001;28;19988;-68
2021/11/18 06:40:25;;;;;;;;;;;;;;;-144.99;100.00;52527.59;5032638;28;20023;-68
2021/11/18 06:42:52;;;;;;;;;;;;;;;-144.99;100.00;52586.69;5029223;28;19993;-68
2021/11/18 06:45:19;;;;;;;;;;;;;;;-144.99;100.00;52576.50;5036359;28;20000;-69
2021/11/18 06:47:46;;;;;;;;;;;;;;;-144.99;100.00;52570.38;5030736;28;19982;-68
2021/11/18 06:50:12;;;;;;;;;;;;;;;-144.99;100.00;52568.34;5033243;28;20364;-69
2021/11/18 06:52:39;;;;;;;;;;;;;;;-144.99;100.00;52607.09;5029047;28;20004;-68
2021/11/18 06:55:10;;;;;;;;;;;;;;;-144.99;100.00;52613.19;5029836;28;19974;-69
2021/11/18 06:57:36;;;;;;;;;;;;;;;-144.99;100.00;52566.31;5028964;28;19981;-69
2021/11/18 07:00:04;;;;;;;;;;;;;;;-144.99;100.00;52558.16;5022095;28;20358;-69
2021/11/18 07:02:30;;;;;;;;;;;;;;;-144.99;100.00;52576.50;5027410;28;19998;-69
2021/11/18 07:04:57;;;;;;;;;;;;;;;-144.99;100.00;52607.09;5032946;28;20334;-69
2021/11/18 07:07:26;;;;;;;;;;;;;;;-144.99;100.00;52560.19;5030932;28;20056;-68
2021/11/18 07:09:52;;;;;;;;;;;;;;;-144.99;100.00;52615.25;5025732;28;20445;-69
2021/11/18 07:12:21;;;;;;;;;;;;;;;-144.99;100.00;52529.63;5023643;28;20353;-68
2021/11/18 07:14:48;;;;;;;;;;;;;;;-144.99;100.00;52578.53;5024887;28;19993;-69
2021/11/18 07:17:16;;;;;;;;;;;;;;;-144.99;100.00;52554.09;5028844;28;20033;-69
2021/11/18 07:19:42;;;;;;;;;;;;;;;-144.99;100.00;52578.53;5027195;28;19978;-68
2021/11/18 07:22:08;;;;;;;;;;;;;;;-144.99;100.00;52537.78;5029859;28;19982;-69
2021/11/18 07:24:35;;;;;;;;;;;;;;;-144.99;100.00;52607.09;5030662;28;19977;-69
2021/11/18 07:27:02;;;;;;;;;;;;;;;-144.99;100.00;52600.97;5030927;28;20263;-68
2021/11/18 07:29:30;;;;;;;;;;;;;;;-144.99;100.00;52570.38;5023718;28;20577;-68
2021/11/18 07:31:56;;;;;;;;;;;;;;;-144.99;100.00;52511.28;5029474;28;20409;-68
2021/11/18 07:34:23;;;;;;;;;;;;;;;-144.99;100.00;52550.00;5030438;28;19998;-69
2021/11/18 07:36:49;;;;;;;;;;;;;;;-144.99;100.00;52562.25;5026304;28;20267;-69
2021/11/18 07:39:18;;;;;;;;;;;;;;;-144.99;100.00;52533.69;5028709;28;20003;-68
2021/11/18 07:41:44;;;;;;;;;;;;;;;-144.99;100.00;52578.53;5031309;28;20537;-70
2021/11/18 07:44:11;;;;;;;;;;;;;;;-144.99;100.00;52533.69;5026329;28;19990;-68
2021/11/18 07:46:38;;;;;;;;;;;;;;;-144.99;100.00;52631.53;5027934;28;19978;-70
2021/11/18 07:49:05;;;;;;;;;;;;;;;-144.99;100.00;52550.00;5033576;28;19977;-69
2021/11/18 07:51:31;;;;;;;;;;;;;;;-144.99;100.00;52550.00;5022941;28;20006;-69
2021/11/18 07:53:58;;;;;;;;;;;;;;;-144.99;100.00;52566.31;5030186;28;20000;-68
2021/11/18 07:56:25;;;;;;;;;;;;;;;-144.99;100.00;52562.25;5035524;28;19982;-69
2021/11/18 07:58:52;;;;;;;;;;;;;;;-144.99;100.00;52586.69;5028924;28;19978;-69
2021/11/18 08:01:19;;;;;;;;;;;;;;;-144.99;100.00;52586.69;5025936;28;19980;-68
2021/11/18 08:03:48;;;;;;;;;;;;;;;-144.99;100.00;52558.16;5025065;28;20470;-68
2021/11/18 08:06:17;;;;;;;;;;;;;;;-144.99;100.00;52562.25;5030701;28;19988;-68
2021/11/18 08:08:48;;;;;;;;;;;;;;;-144.99;100.00;52574.47;5027618;28;20204;-68
2021/11/18 08:11:15;;;;;;;;;;;;;;;-144.99;100.00;52562.25;5030579;28;20046;-70
2021/11/18 08:13:41;;;;;;;;;;;;;;;-144.99;100.00;52541.84;5031510;28;20004;-70
2021/11/18 08:16:08;;;;;;;;;;;;;;;-144.99;100.00;52525.56;5035101;28;20084;-69
2021/11/18 08:18:34;;;;;;;;;;;;;;;-144.99;100.00;52545.94;5027502;28;19981;-69
2021/11/18 08:21:02;;;;;;;;;;;;;;;-144.99;100.00;52554.09;5023498;28;19986;-69
2021/11/18 08:23:32;;;;;;;;;;;;;;;-144.99;100.00;52507.19;5029435;28;20396;-69
2021/11/18 08:25:58;;;;;;;;;;;;;;;-144.99;100.00;52574.47;5038215;28;20015;-69
2021/11/18 08:28:25;;;;;;;;;;;;;;;-144.99;100.00;52594.84;5035308;28;20385;-69
2021/11/18 08:30:51;;;;;;;;;;;;;;;-144.99;100.00;52556.13;5026820;28;20000;-68
2021/11/18 08:33:18;;;;;;;;;;;;;;;-144.99;100.00;52562.25;5030245;28;20273;-70
2021/11/18 08:35:44;;;;;;;;;;;;;;;-144.99;100.00;52554.09;5032219;28;20421;-70
2021/11/18 08:38:13;;;;;;;;;;;;;;;-144.99;100.00;52550.00;5025676;28;19978;-69
2021/11/18 08:40:42;;;;;;;;;;;;;;;-144.99;100.00;52570.38;5027547;28;19977;-70
2021/11/18 08:43:09;;;;;;;;;;;;;;;-144.99;100.00;52552.03;5034642;28;20111;-69
2021/11/18 08:45:36;;;;;;;;;;;;;;;-144.99;100.00;52539.81;5028850;28;20072;-70
2021/11/18 08:48:04;;;;;;;;;;;;;;;-144.99;100.00;52525.56;5019157;28;20374;-70
2021/11/18 08:50:31;;;;;;;;;;;;;;;-144.99;100.00;52590.78;5016165;28;20218;-70
2021/11/18 08:52:58;;;;;;;;;;;;;;;-144.99;100.00;52568.34;5022096;28;19996;-69
2021/11/18 08:55:29;;;;;;;;;;;;;;;-144.99;100.00;52537.78;5023534;28;19985;-68
2021/11/18 08:57:56;;;;;;;;;;;;;;;-144.99;100.00;52562.25;5031248;28;20048;-69
2021/11/18 09:00:24;;;;;;;;;;;;;;;-144.99;100.00;52566.31;5028244;28;19949;-69
2021/11/18 09:02:51;;;;;;;;;;;;;;;-144.99;100.00;52558.16;5022916;28;19998;-70
2021/11/18 09:05:18;;;;;;;;;;;;;;;-144.99;100.00;52554.09;5027530;28;20350;-69
2021/11/18 09:07:45;;;;;;;;;;;;;;;-144.99;100.00;52570.38;5018691;28;19985;-69
2021/11/18 09:10:13;;;;;;;;;;;;;;;-144.99;100.00;52572.44;5030313;28;20064;-70
2021/11/18 09:12:42;;;;;;;;;;;;;;;-144.99;100.00;52592.81;5031397;28;20004;-69
2021/11/18 09:15:09;;;;;;;;;;;;;;;-144.99;100.00;52582.63;5023423;28;20016;-69
2021/11/18 09:17:36;;;;;;;;;;;;;;;-144.99;100.00;52570.38;5030261;28;19981;-69
2021/11/18 09:20:02;;;;;;;;;;;;;;;-144.99;100.00;52529.63;5037295;28;19978;-69
2021/11/18 09:22:28;;;;;;;;;;;;;;;-144.99;100.00;52558.16;5030768;28;19982;-69
2021/11/18 09:24:57;;;;;;;;;;;;;;;-144.99;100.00;52582.63;5036456;28;19981;-70
2021/11/18 09:27:25;;;;;;;;;;;;;;;-144.99;100.00;52594.84;5031797;28;20024;-71
2021/11/18 09:29:54;;;;;;;;;;;;;;;-144.99;100.00;52562.25;5032876;28;19978;-70
2021/11/18 09:32:20;;;;;;;;;;;;;;;-144.99;100.00;52590.78;5036927;28;20008;-70
2021/11/18 09:34:47;;;;;;;;;;;;;;;-144.99;100.00;52554.09;5031137;28;19981;-70
2021/11/18 09:37:13;;;;;;;;;;;;;;;-144.99;100.00;52550.00;5031582;28;19985;-70
2021/11/18 09:39:40;;;;;;;;;;;;;;;-144.99;100.00;52533.69;5030035;28;19999;-68
2021/11/18 09:42:07;;;;;;;;;;;;;;;-144.99;100.00;52501.09;5028037;28;20281;-68
2021/11/18 09:44:48;;;;;;;;;;;;;;;-144.99;100.00;52558.16;5029118;28;20628;-69
2021/11/18 09:47:44;;;;;;;;;;;;;;;-144.99;100.00;52570.38;5025817;28;19978;-69
2021/11/18 09:50:15;;;;;;;;;;;;;;;-144.99;100.00;52586.69;5026910;28;19985;-69
2021/11/18 09:52:48;;;;;;;;;;;;;;;-144.99;100.00;52552.03;5028022;28;19997;-69
2021/11/18 09:55:16;;;;;;;;;;;;;;;-144.99;100.00;52594.84;5030267;28;19982;-69
2021/11/18 09:57:54;;;;;;;;;;;;;;;-144.99;100.00;52521.47;5033154;28;19978;-69
2021/11/18 10:00:27;;;;;;;;;;;;;;;-144.99;100.00;52533.69;5031248;28;20080;-69
2021/11/18 10:03:06;;;;;;;;;;;;;;;-144.99;100.00;52570.38;5021240;28;19998;-68
2021/11/18 10:05:35;;;;;;;;;;;;;;;-144.99;100.00;52578.53;5035890;28;20040;-69
2021/11/18 10:08:06;;;;;;;;;;;;;;;-144.99;100.00;52545.94;5032792;28;20116;-69
2021/11/18 10:10:35;;;;;;;;;;;;;;;-144.99;100.00;52533.69;5033029;28;20457;-69
2021/11/18 10:13:17;;;;;;;;;;;;;;;-144.99;100.00;52537.78;5030202;28;19997;-70
2021/11/18 10:15:45;;;;;;;;;;;;;;;-144.99;100.00;52592.81;5027635;28;20366;-70
2021/11/18 10:18:20;;;;;;;;;;;;;;;-144.99;100.00;52547.97;5029878;28;19983;-69
2021/11/18 10:20:49;;;;;;;;;;;;;;;-144.99;100.00;52533.69;5029425;28;19981;-70
2021/11/18 10:23:17;;;;;;;;;;;;;;;-144.99;100.00;52586.69;5028619;28;19994;-70
2021/11/18 10:25:44;;;;;;;;;;;;;;;-144.99;100.00;52574.47;5029356;28;19990;-70
2021/11/18 10:28:31;;;;;;;;;;;;;;;-144.99;100.00;52533.69;5034827;28;20037;-69
2021/11/18 10:31:07;;;;;;;;;;;;;;;-144.99;100.00;52545.94;5034076;28;19984;-68
2021/11/18 10:33:41;;;;;;;;;;;;;;;-144.99;100.00;52521.47;5028703;28;20000;-69
2021/11/18 10:36:10;;;;;;;;;;;;;;;-144.99;100.00;52554.09;5027745;28;19984;-69
2021/11/18 10:38:38;;;;;;;;;;;;;;;-144.99;100.00;52588.75;5031575;28;20064;-69
2021/11/18 10:41:05;;;;;;;;;;;;;;;-144.99;100.00;52541.84;5027602;28;19985;-69
2021/11/18 10:43:33;;;;;;;;;;;;;;;-144.99;100.00;52525.56;5026066;28;20492;-71
2021/11/18 10:46:09;;;;;;;;;;;;;;;-144.99;100.00;52558.16;5029574;28;20346;-69
2021/11/18 10:48:37;;;;;;;;;;;;;;;-144.99;100.00;52521.47;5027452;28;20328;-69
2021/11/18 10:51:06;;;;;;;;;;;;;;;-144.99;100.00;52554.09;5027381;28;20403;-69
2021/11/18 10:53:44;;;;;;;;;;;;;;;-144.99;100.00;52533.69;5027935;28;20005;-68
2021/11/18 10:56:12;;;;;;;;;;;;;;;-144.99;100.00;52505.16;5027917;28;19980;-69
2021/11/18 10:58:39;;;;;;;;;;;;;;;-144.99;100.00;52578.53;5029288;28;20064;-70
2021/11/18 11:01:07;;;;;;;;;;;;;;;-144.99;100.00;52513.31;5028368;28;20343;-68
2021/11/18 11:03:38;;;;;;;;;;;;;;;-144.99;100.00;52541.84;5025114;28;20477;-69
2021/11/18 11:06:15;;;;;;;;;;;;;;;-144.99;100.00;52525.56;5021982;28;20222;-70
2021/11/18 11:08:42;;;;;;;;;;;;;;;-144.99;100.00;52539.81;5025315;28;19996;-70
2021/11/18 11:11:12;;;;;;;;;;;;;;;-144.99;100.00;52562.25;5027324;28;19978;-69
2021/11/18 11:13:48;;;;;;;;;;;;;;;-144.99;100.00;52525.56;5027448;28;19997;-69
2021/11/18 11:16:41;;;;;;;;;;;;;;;-144.99;100.00;52582.63;5030809;28;20481;-70
2021/11/18 11:19:10;;;;;;;;;;;;;;;-144.99;100.00;52541.84;5021744;28;19974;-70
2021/11/18 11:21:49;;;;;;;;;;;;;;;-144.99;100.00;52545.94;5026692;28;20356;-70
2021/11/18 11:24:33;;;;;;;;;;;;;;;-144.99;100.00;52539.81;5024145;28;20024;-70
2021/11/18 11:27:13;;;;;;;;;;;;;;;-144.99;100.00;52554.09;5028053;28;19977;-69
2021/11/18 11:29:41;;;;;;;;;;;;;;;-144.99;100.00;52525.56;5025496;28;20488;-69
2021/11/18 11:32:12;;;;;;;;;;;;;;;-144.99;100.00;52541.84;5027700;28;20043;-70
2021/11/18 11:34:49;;;;;;;;;;;;;;;-144.99;100.00;52533.69;5026308;28;19985;-69
2021/11/18 11:37:36;;;;;;;;;;;;;;;-144.99;100.00;52521.47;5022657;28;20039;-69
2021/11/18 11:40:05;;;;;;;;;;;;;;;-144.99;100.00;52545.94;5020491;28;19978;-69
2021/11/18 11:42:41;;;;;;;;;;;;;;;-144.99;100.00;52529.63;5027512;28;20020;-70
2021/11/18 11:45:12;;;;;;;;;;;;;;;-144.99;100.00;52582.63;5021613;28;19977;-69
2021/11/18 11:47:57;;;;;;;;;;;;;;;-144.99;100.00;52545.94;5021329;28;19977;-69
2021/11/18 11:50:29;;;;;;;;;;;;;;;-144.99;100.00;52554.09;5026614;28;19981;-67
2021/11/18 11:53:02;;;;;;;;;;;;;;;-144.99;100.00;52545.94;5027128;28;20076;-69
2021/11/18 11:55:46;;;;;;;;;;;;;;;-144.99;100.00;52521.47;5030833;28;19981;-69
2021/11/18 11:58:16;;;;;;;;;;;;;;;-144.99;100.00;52521.47;5024816;28;19981;-69
2021/11/18 12:00:50;;;;;;;;;;;;;;;-144.99;100.00;52543.91;5028027;28;19981;-68
2021/11/18 12:03:21;;;;;;;;;;;;;;;-144.99;100.00;52523.50;5025725;28;20004;-70
2021/11/18 12:05:52;;;;;;;;;;;;;;;-144.99;100.00;52558.16;5025361;28;20022;-70
2021/11/18 12:08:23;;;;;;;;;;;;;;;-144.99;100.00;52525.56;5027305;28;19977;-69
2021/11/18 12:10:54;;;;;;;;;;;;;;;-144.99;100.00;52554.09;5027865;28;20470;-69
2021/11/18 12:13:26;;;;;;;;;;;;;;;-144.99;100.00;52578.53;5025990;28;20189;-69
2021/11/18 12:15:54;;;;;;;;;;;;;;;-144.99;100.00;52509.25;5025968;28;19981;-69
2021/11/18 12:18:28;;;;;;;;;;;;;;;-144.99;100.00;52562.25;5022415;28;20446;-69
2021/11/18 12:20:56;;;;;;;;;;;;;;;-144.99;100.00;52594.84;5026864;28;20112;-70
2021/11/18 12:23:44;;;;;;;;;;;;;;;-144.99;100.00;52525.56;5027542;28;20001;-70